Time;durP1;ratioP1;P1;durP2;ratioP2;P2;SDS_P1;SDS_P2;PMS_P1;PMS_P2;Temp;Humidity;BMP_temperature;BMP_pressure;BME280_temperature;BME280_humidity;BME280_pressure;Samples;Min_cycle;Max_cycle;Signal;HPM_P1;HPM_P2
2023/06/03 00:01:13;;;;;;;9.30;3.38;;;13.30;99.90;;;;;;5052819;28;20032;-84
2023/06/03 00:03:39;;;;;;;5.88;2.75;;;13.20;99.90;;;;;;5063012;28;20497;-85
2023/06/03 00:06:06;;;;;;;6.03;2.70;;;13.10;99.90;;;;;;5045856;28;20045;-82
2023/06/03 00:08:32;;;;;;;9.07;2.90;;;13.10;99.90;;;;;;5047494;28;20040;-83
2023/06/03 00:10:58;;;;;;;8.02;3.38;;;13.10;99.90;;;;;;5046446;28;20119;-85
2023/06/03 00:13:24;;;;;;;5.55;2.88;;;13.00;99.90;;;;;;5064981;28;20037;-85
2023/06/03 00:15:50;;;;;;;6.38;2.80;;;12.90;1.00;;;;;;5063247;28;20425;-81
2023/06/03 00:18:16;;;;;;;5.43;2.63;;;12.80;1.00;;;;;;5062984;28;20768;-83
2023/06/03 00:20:47;;;;;;;8.27;3.30;;;12.60;1.00;;;;;;5065580;28;20033;-85
2023/06/03 00:23:16;;;;;;;6.45;3.58;;;12.50;1.00;;;;;;5063816;28;20044;-84
2023/06/03 00:25:42;;;;;;;8.80;2.88;;;12.40;1.00;;;;;;5064452;28;20032;-84
2023/06/03 00:28:08;;;;;;;11.93;4.10;;;12.40;1.00;;;;;;5044614;28;20036;-82
2023/06/03 00:30:35;;;;;;;8.70;2.92;;;12.30;1.00;;;;;;5067160;28;20028;-85
2023/06/03 00:33:02;;;;;;;6.68;3.33;;;12.30;1.00;;;;;;5067324;28;20024;-82
2023/06/03 00:35:28;;;;;;;7.68;3.03;;;12.20;1.00;;;;;;5049033;28;20486;-85
2023/06/03 00:37:55;;;;;;;6.80;2.67;;;12.30;1.00;;;;;;5050048;28;20044;-82
2023/06/03 00:40:21;;;;;;;5.20;2.92;;;12.30;1.00;;;;;;5066403;28;20466;-85
2023/06/03 00:42:47;;;;;;;8.00;3.25;;;12.20;1.00;;;;;;5069584;28;20105;-85
2023/06/03 00:45:13;;;;;;;5.60;2.67;;;12.10;1.00;;;;;;5065526;28;20386;-85
2023/06/03 00:47:39;;;;;;;8.95;3.65;;;12.00;1.00;;;;;;5067495;28;20049;-85
2023/06/03 00:50:07;;;;;;;8.13;3.28;;;12.00;1.00;;;;;;5064910;28;20044;-83
2023/06/03 00:52:35;;;;;;;7.05;3.47;;;11.90;1.00;;;;;;5051520;28;20489;-84
2023/06/03 00:55:02;;;;;;;5.75;2.90;;;11.80;1.00;;;;;;5064193;28;20036;-85
2023/06/03 00:57:28;;;;;;;6.78;3.33;;;11.70;1.00;;;;;;5061176;28;20052;-85
2023/06/03 00:59:55;;;;;;;5.80;2.75;;;11.50;1.00;;;;;;5071578;28;20043;-83
2023/06/03 01:02:23;;;;;;;7.60;3.30;;;11.60;1.00;;;;;;5068088;28;20135;-85
2023/06/03 01:04:51;;;;;;;7.43;3.05;;;11.50;1.00;;;;;;5068265;28;20048;-86
2023/06/03 01:07:37;;;;;;;6.03;2.97;;;11.50;1.00;;;;;;5050858;28;20619;-85
2023/06/03 01:10:14;;;;;;;6.75;3.33;;;11.30;1.00;;;;;;5052525;28;20045;-85
2023/06/03 01:12:51;;;;;;;7.38;2.63;;;11.40;1.00;;;;;;5054640;28;20052;-85
2023/06/03 01:15:23;;;;;;;10.52;3.90;;;11.30;1.00;;;;;;5068322;28;20047;-85
2023/06/03 01:17:52;;;;;;;7.65;2.88;;;11.30;1.00;;;;;;5067708;28;20033;-86
2023/06/03 01:20:19;;;;;;;10.60;3.05;;;11.40;1.00;;;;;;5067638;28;20025;-84
2023/06/03 01:22:51;;;;;;;10.20;3.47;;;11.30;1.00;;;;;;5050194;28;20055;-85
2023/06/03 01:25:20;;;;;;;8.23;3.22;;;11.30;1.00;;;;;;5068739;28;20213;-85
2023/06/03 01:27:48;;;;;;;7.07;3.75;;;11.20;1.00;;;;;;5061857;28;20032;-85
2023/06/03 01:30:17;;;;;;;5.25;2.97;;;11.30;1.00;;;;;;5049703;28;20407;-85
2023/06/03 01:32:46;;;;;;;5.43;3.00;;;11.30;1.00;;;;;;5051886;28;20108;-85
2023/06/03 01:35:13;;;;;;;8.77;3.22;;;11.30;1.00;;;;;;5058853;28;20045;-84
2023/06/03 01:37:40;;;;;;;8.40;3.38;;;11.30;1.00;;;;;;5069135;28;20044;-85
2023/06/03 01:40:09;;;;;;;13.63;3.38;;;11.30;1.00;;;;;;5065273;28;20405;-85
2023/06/03 01:42:37;;;;;;;7.13;3.33;;;11.20;1.00;;;;;;5078148;28;20044;-85
2023/06/03 01:45:05;;;;;;;8.05;3.13;;;11.10;1.00;;;;;;5086326;28;20481;-85
2023/06/03 01:47:32;;;;;;;5.85;2.78;;;11.10;1.00;;;;;;5087979;28;20037;-84
2023/06/03 01:49:58;;;;;;;7.43;3.03;;;11.10;1.00;;;;;;5091229;28;20039;-82
2023/06/03 01:52:26;;;;;;;6.63;3.03;;;10.90;1.00;;;;;;5092069;28;20051;-84
2023/06/03 01:54:52;;;;;;;8.10;4.07;;;10.80;8.60;;;;;;5086064;28;20044;-84
2023/06/03 01:57:19;;;;;;;12.05;3.55;;;10.70;17.70;;;;;;5091190;28;20130;-84
2023/06/03 01:59:45;;;;;;;7.45;3.50;;;10.70;25.50;;;;;;5088520;28;20503;-85
2023/06/03 02:02:11;;;;;;;7.95;3.08;;;10.70;29.90;;;;;;5089434;28;20051;-85
2023/06/03 02:04:37;;;;;;;8.98;3.38;;;10.70;33.90;;;;;;5087349;28;20396;-85
2023/06/03 02:07:04;;;;;;;10.65;3.40;;;10.60;37.80;;;;;;5091211;28;20036;-85
2023/06/03 02:09:31;;;;;;;6.70;2.90;;;10.70;41.10;;;;;;5074882;28;20036;-82
2023/06/03 02:11:59;;;;;;;9.20;3.75;;;10.60;43.50;;;;;;5088270;28;20032;-85
2023/06/03 02:14:27;;;;;;;7.07;3.78;;;10.70;46.10;;;;;;5087950;28;20039;-84
2023/06/03 02:16:57;;;;;;;9.57;3.42;;;10.70;46.60;;;;;;5088822;28;20032;-85
2023/06/03 02:19:25;;;;;;;6.87;3.20;;;10.60;50.90;;;;;;5088885;28;20088;-84
2023/06/03 02:21:52;;;;;;;5.35;3.20;;;10.70;45.80;;;;;;5088746;28;20489;-85
2023/06/03 02:24:19;;;;;;;6.85;3.33;;;10.60;46.90;;;;;;5086200;28;20044;-84
2023/06/03 02:26:52;;;;;;;6.72;3.50;;;10.60;50.30;;;;;;5087166;28;20032;-85
2023/06/03 02:29:22;;;;;;;9.05;3.33;;;10.60;54.50;;;;;;5098886;28;20044;-85
2023/06/03 02:31:49;;;;;;;9.00;3.17;;;10.50;59.60;;;;;;5086377;28;20047;-84
2023/06/03 02:34:19;;;;;;;4.95;3.17;;;10.60;61.60;;;;;;5091742;28;20401;-83
2023/06/03 02:36:46;;;;;;;9.25;3.97;;;10.60;62.10;;;;;;5086304;28;20480;-84
2023/06/03 02:39:14;;;;;;;4.95;2.95;;;10.50;64.50;;;;;;5086547;28;20032;-83
2023/06/03 02:41:45;;;;;;;4.88;2.45;;;10.50;68.70;;;;;;5090404;28;20047;-84
2023/06/03 02:44:13;;;;;;;8.45;4.38;;;10.40;72.00;;;;;;5090190;28;20043;-84
2023/06/03 02:46:40;;;;;;;6.75;3.38;;;10.40;80.30;;;;;;5091413;28;20040;-85
2023/06/03 02:49:07;;;;;;;5.45;2.83;;;10.30;90.10;;;;;;5087412;28;20043;-83
2023/06/03 02:51:35;;;;;;;6.47;3.15;;;10.30;92.20;;;;;;5082630;28;20041;-84
2023/06/03 02:54:01;;;;;;;7.78;3.00;;;10.20;95.10;;;;;;5080871;28;20398;-79
2023/06/03 02:56:27;;;;;;;8.90;4.45;;;10.20;95.60;;;;;;5083506;28;20388;-84
2023/06/03 02:58:54;;;;;;;8.85;3.35;;;10.20;96.70;;;;;;5085404;28;20047;-85
2023/06/03 03:01:22;;;;;;;7.95;3.15;;;10.20;99.90;;;;;;5084465;28;20036;-84
2023/06/03 03:03:48;;;;;;;7.70;3.95;;;10.20;99.90;;;;;;5085214;28;20048;-83
2023/06/03 03:06:19;;;;;;;7.07;2.90;;;10.20;99.90;;;;;;5083153;28;20036;-84
2023/06/03 03:08:47;;;;;;;9.63;3.88;;;10.20;99.90;;;;;;5101046;28;20047;-85
2023/06/03 03:11:14;;;;;;;5.47;2.80;;;10.20;99.90;;;;;;5083690;28;20032;-84
2023/06/03 03:13:42;;;;;;;9.85;3.03;;;10.20;99.90;;;;;;5085914;28;20039;-85
2023/06/03 03:16:10;;;;;;;6.65;3.08;;;10.10;99.90;;;;;;5087524;28;20040;-84
2023/06/03 03:18:38;;;;;;;7.13;3.22;;;10.00;99.90;;;;;;5067558;28;20051;-85
2023/06/03 03:21:06;;;;;;;8.63;3.22;;;10.00;99.90;;;;;;5081776;28;20048;-83
2023/06/03 03:23:33;;;;;;;12.60;4.30;;;10.00;99.90;;;;;;5086383;28;20373;-85
2023/06/03 03:26:02;;;;;;;8.35;3.53;;;9.90;99.90;;;;;;5085065;28;20043;-85
2023/06/03 03:28:31;;;;;;;11.73;4.50;;;9.90;99.90;;;;;;5089384;28;20040;-85
2023/06/03 03:30:59;;;;;;;6.65;3.38;;;9.90;99.90;;;;;;5078215;28;20365;-83
2023/06/03 03:33:27;;;;;;;10.25;4.15;;;10.00;99.90;;;;;;5073145;28;20044;-86
2023/06/03 03:35:55;;;;;;;11.60;3.58;;;9.90;99.90;;;;;;5081621;28;20460;-85
2023/06/03 03:38:22;;;;;;;7.55;2.63;;;9.90;99.90;;;;;;5082081;28;20040;-85
2023/06/03 03:40:48;;;;;;;8.48;3.33;;;10.00;99.90;;;;;;5087764;28;20028;-84
2023/06/03 03:43:19;;;;;;;8.43;3.00;;;10.00;99.90;;;;;;5065997;28;20036;-85
2023/06/03 03:45:46;;;;;;;11.20;3.65;;;10.10;99.90;;;;;;5047869;28;20405;-86
2023/06/03 03:48:18;;;;;;;6.55;3.40;;;10.10;99.90;;;;;;5065113;28;20132;-85
2023/06/03 03:50:52;;;;;;;11.32;3.10;;;10.10;99.90;;;;;;5040942;28;20041;-84
2023/06/03 03:53:30;;;;;;;7.32;4.32;;;10.10;99.90;;;;;;5039127;28;20136;-86
2023/06/03 03:55:58;;;;;;;8.40;3.15;;;10.20;99.90;;;;;;5047232;28;20053;-84
2023/06/03 03:58:29;;;;;;;11.27;3.67;;;10.20;99.90;;;;;;5033508;28;20043;-85
2023/06/03 04:01:00;;;;;;;11.23;3.80;;;10.20;99.90;;;;;;5050281;28;20040;-83
2023/06/03 04:03:35;;;;;;;8.75;3.13;;;10.20;99.90;;;;;;5051134;28;20048;-84
2023/06/03 04:06:02;;;;;;;12.43;4.22;;;10.20;99.90;;;;;;5049775;28;20478;-83
2023/06/03 04:08:51;;;;;;;7.28;3.53;;;10.30;99.90;;;;;;5047093;28;20033;-84
2023/06/03 04:11:29;;;;;;;10.40;3.50;;;10.30;99.90;;;;;;5060093;28;20032;-84
2023/06/03 04:13:58;;;;;;;16.05;3.75;;;10.30;99.90;;;;;;5047632;28;20072;-84
2023/06/03 04:16:42;;;;;;;8.75;3.55;;;10.40;99.90;;;;;;5046884;28;20045;-85
2023/06/03 04:19:32;;;;;;;10.27;3.30;;;10.40;99.90;;;;;;5044832;28;20048;-80
2023/06/03 04:22:04;;;;;;;4.88;2.60;;;10.70;93.10;;;;;;5046901;28;20051;-84
2023/06/03 04:24:34;;;;;;;10.55;3.10;;;11.50;35.80;;;;;;5048280;28;20398;-82
2023/06/03 04:27:02;;;;;;;7.95;2.80;;;12.10;1.00;;;;;;5049961;28;20037;-83
2023/06/03 04:29:32;;;;;;;6.95;2.90;;;12.20;1.00;;;;;;5041335;28;20040;-85
2023/06/03 04:31:59;;;;;;;6.30;2.90;;;12.00;1.00;;;;;;5041932;28;20410;-82
2023/06/03 04:34:28;;;;;;;6.65;2.70;;;12.30;1.00;;;;;;5065418;28;20036;-85
2023/06/03 04:36:54;;;;;;;7.25;2.47;;;12.70;1.00;;;;;;5066023;28;20059;-85
2023/06/03 04:39:21;;;;;;;4.18;2.38;;;13.30;1.00;;;;;;5033385;28;20045;-85
2023/06/03 04:41:50;;;;;;;6.35;2.92;;;13.40;1.00;;;;;;5076443;28;20409;-83
2023/06/03 04:44:18;;;;;;;5.80;3.20;;;13.20;1.00;;;;;;5079896;28;20052;-82
2023/06/03 04:46:45;;;;;;;6.63;3.20;;;13.30;1.00;;;;;;5094689;28;20040;-85
2023/06/03 04:49:12;;;;;;;9.00;3.45;;;13.40;1.00;;;;;;5082265;28;20041;-83
2023/06/03 04:51:40;;;;;;;4.50;2.30;;;13.60;1.00;;;;;;5099404;28;20377;-85
2023/06/03 04:54:08;;;;;;;7.68;3.25;;;14.10;1.00;;;;;;5075261;28;20040;-79
2023/06/03 04:56:37;;;;;;;7.90;2.92;;;14.40;1.00;;;;;;5088775;28;20401;-85
2023/06/03 04:59:05;;;;;;;6.88;2.63;;;14.20;1.00;;;;;;5083431;28;20036;-83
2023/06/03 05:01:38;;;;;;;8.25;2.50;;;13.90;1.00;;;;;;5084263;28;20040;-84
2023/06/03 05:04:08;;;;;;;7.13;2.63;;;14.00;1.00;;;;;;5098490;28;20051;-83
2023/06/03 05:06:36;;;;;;;;;;;14.40;1.00;;;;;;5079259;28;20036;-81
2023/06/03 05:09:04;;;;;;;6.22;3.25;;;14.80;1.00;;;;;;5075947;28;19904;-82
2023/06/03 05:11:30;;;;;;;7.35;2.85;;;15.00;1.00;;;;;;5100618;28;20483;-85
2023/06/03 05:13:57;;;;;;;5.97;2.58;;;15.00;1.00;;;;;;5083549;28;20048;-81
2023/06/03 05:16:23;;;;;;;6.18;2.72;;;15.10;1.00;;;;;;5084418;28;20032;-85
2023/06/03 05:18:50;;;;;;;8.48;2.50;;;15.10;1.00;;;;;;5084026;28;20048;-83
2023/06/03 05:21:19;;;;;;;9.35;2.75;;;15.10;1.00;;;;;;5082887;28;20029;-85
2023/06/03 05:23:45;;;;;;;6.72;2.58;;;15.20;1.00;;;;;;5082235;28;20487;-83
2023/06/03 05:26:12;;;;;;;5.20;2.65;;;15.70;99.90;;;;;;5082678;28;20469;-81
2023/06/03 05:28:39;;;;;;;6.53;2.90;;;15.60;99.90;;;;;;5086495;28;20040;-85
2023/06/03 05:31:05;;;;;;;9.57;2.60;;;15.60;99.90;;;;;;5091218;28;20043;-85
2023/06/03 05:33:35;;;;;;;6.10;2.42;;;15.70;99.90;;;;;;5085028;28;20123;-85
2023/06/03 05:36:10;;;;;;;13.57;2.95;;;15.60;99.90;;;;;;5092507;28;20044;-87
2023/06/03 05:38:36;;;;;;;5.38;2.00;;;15.50;99.90;;;;;;5086617;28;20044;-85
2023/06/03 05:41:06;;;;;;;10.10;3.40;;;15.80;99.90;;;;;;5085315;28;20044;-84
2023/06/03 05:43:32;;;;;;;5.57;2.38;;;15.80;99.90;;;;;;5030041;28;20032;-83
2023/06/03 05:45:59;;;;;;;6.50;2.70;;;15.60;99.90;;;;;;5060733;28;20039;-80
2023/06/03 05:48:26;;;;;;;7.57;2.90;;;15.60;99.90;;;;;;5040290;28;20040;-85
2023/06/03 05:50:54;;;;;;;15.98;2.97;;;15.60;99.90;;;;;;5052533;28;20047;-84
2023/06/03 05:53:24;;;;;;;5.97;3.03;;;15.90;99.90;;;;;;5047580;28;20041;-85
2023/06/03 05:55:52;;;;;;;7.05;2.50;;;16.10;99.90;;;;;;5047608;28;20043;-85
2023/06/03 05:58:20;;;;;;;4.90;2.67;;;16.00;99.90;;;;;;5048966;28;20045;-84
2023/06/03 06:00:47;;;;;;;7.50;3.13;;;16.10;99.90;;;;;;5031682;28;20049;-84
2023/06/03 06:03:14;;;;;;;7.75;2.60;;;16.20;99.90;;;;;;5048134;28;20047;-81
2023/06/03 06:05:40;;;;;;;4.88;2.88;;;16.30;99.90;;;;;;5053574;28;20044;-82
2023/06/03 06:08:07;;;;;;;6.32;2.47;;;16.50;99.90;;;;;;5038887;28;20048;-80
2023/06/03 06:10:34;;;;;;;7.78;2.60;;;16.40;99.90;;;;;;5044008;28;20041;-81
2023/06/03 06:13:00;;;;;;;6.18;2.80;;;16.30;99.90;;;;;;5060491;28;20900;-80
2023/06/03 06:15:30;;;;;;;7.80;2.63;;;16.60;99.90;;;;;;5031225;28;20067;-81
2023/06/03 06:17:56;;;;;;;4.03;2.40;;;16.40;99.90;;;;;;5045423;28;20063;-85
2023/06/03 06:20:24;;;;;;;7.43;2.90;;;16.60;99.90;;;;;;5064104;28;20033;-82
2023/06/03 06:22:52;;;;;;;6.13;2.83;;;17.00;99.90;;;;;;5046552;28;20052;-81
2023/06/03 06:25:18;;;;;;;5.80;2.88;;;17.10;99.90;;;;;;5053844;28;20045;-81
2023/06/03 06:27:45;;;;;;;7.00;2.78;;;16.80;99.90;;;;;;5064642;28;20040;-81
2023/06/03 06:30:16;;;;;;;9.13;2.80;;;16.70;99.90;;;;;;5040990;28;20048;-82
2023/06/03 06:32:51;;;;;;;5.97;3.05;;;17.00;99.90;;;;;;5049630;28;20045;-82
2023/06/03 06:35:26;;;;;;;9.38;2.15;;;17.40;99.90;;;;;;5065765;28;20488;-81
2023/06/03 06:37:55;;;;;;;;;;;17.50;99.90;;;;;;5050861;28;20052;-82
2023/06/03 06:40:28;;;;;;;5.65;2.85;;;17.50;99.90;;;;;;5051034;28;19915;-83
2023/06/03 06:42:55;;;;;;;11.60;3.85;;;17.50;99.90;;;;;;5063440;28;20041;-84
2023/06/03 06:45:34;;;;;;;5.82;2.80;;;17.50;99.90;;;;;;5051151;28;20453;-83
2023/06/03 06:48:05;;;;;;;5.88;2.47;;;17.90;99.90;;;;;;5049149;28;20047;-84
2023/06/03 06:50:54;;;;;;;4.50;2.30;;;18.00;99.90;;;;;;5047287;28;20150;-83
2023/06/03 06:53:25;;;;;;;10.25;3.05;;;18.10;99.90;;;;;;5050425;28;20052;-83
2023/06/03 06:56:08;;;;;;;11.82;3.05;;;18.10;99.90;;;;;;5046955;28;20413;-81
2023/06/03 06:58:51;;;;;;;7.18;2.83;;;18.10;99.90;;;;;;5032201;28;20497;-82
2023/06/03 07:01:18;;;;;;;7.78;2.60;;;18.00;99.90;;;;;;5039601;28;20037;-85
2023/06/03 07:03:49;;;;;;;7.60;2.33;;;19.20;99.90;;;;;;5046928;28;20051;-80
2023/06/03 07:06:16;;;;;;;6.53;2.55;;;19.40;99.90;;;;;;5052736;28;20521;-81
2023/06/03 07:08:44;;;;;;;5.25;2.47;;;19.30;99.90;;;;;;5052684;28;20504;-80
2023/06/03 07:11:12;;;;;;;6.88;2.47;;;19.00;99.90;;;;;;5052571;28;20044;-80
2023/06/03 07:13:43;;;;;;;5.22;2.55;;;19.10;99.90;;;;;;5048811;28;20047;-81
2023/06/03 07:16:14;;;;;;;5.05;2.97;;;19.50;99.90;;;;;;5065788;28;20040;-79
2023/06/03 07:18:41;;;;;;;6.50;2.40;;;19.60;99.90;;;;;;5066019;28;20044;-82
2023/06/03 07:21:07;;;;;;;4.13;2.72;;;19.90;99.90;;;;;;5063847;28;20781;-82
2023/06/03 07:23:34;;;;;;;7.43;2.28;;;20.60;99.90;;;;;;5040891;28;20040;-79
2023/06/03 07:26:03;;;;;;;3.35;2.15;;;21.30;99.90;;;;;;5062500;28;20045;-81
2023/06/03 07:28:35;;;;;;;4.93;2.60;;;21.10;99.90;;;;;;5020863;28;20819;-83
2023/06/03 07:31:10;;;;;;;6.47;2.50;;;20.50;99.90;;;;;;5023808;28;20047;-81
2023/06/03 07:33:49;;;;;;;5.35;2.42;;;20.70;99.90;;;;;;5059293;28;20041;-87
2023/06/03 07:36:20;;;;;;;6.20;1.95;;;20.60;99.90;;;;;;5029463;28;20032;-83
2023/06/03 07:39:14;;;;;;;4.47;1.90;;;21.30;99.90;;;;;;5042090;28;20044;-81
2023/06/03 07:41:55;;;;;;;4.50;2.47;;;21.30;99.90;;;;;;5059860;28;20044;-82
2023/06/03 07:44:50;;;;;;;4.40;2.15;;;20.80;99.90;;;;;;5041146;28;20421;-82
2023/06/03 07:47:17;;;;;;;4.38;1.73;;;20.60;99.90;;;;;;5058680;28;20060;-78
2023/06/03 07:49:45;;;;;;;4.55;2.05;;;20.50;99.90;;;;;;5064009;28;20033;-83
2023/06/03 07:52:19;;;;;;;6.15;2.88;;;20.20;99.90;;;;;;5064392;28;20056;-80
2023/06/03 07:54:45;;;;;;;3.97;2.55;;;19.70;99.90;;;;;;5064755;28;20041;-82
2023/06/03 07:57:15;;;;;;;9.07;2.45;;;20.70;99.90;;;;;;5064529;28;20041;-80
2023/06/03 07:59:53;;;;;;;4.40;2.33;;;21.60;99.90;;;;;;5062539;28;20029;-81
2023/06/03 08:02:20;;;;;;;6.00;3.47;;;21.70;99.90;;;;;;5060560;28;20259;-80
2023/06/03 08:04:46;;;;;;;8.15;2.72;;;21.70;99.90;;;;;;5063252;28;20040;-80
2023/06/03 08:07:15;;;;;;;3.53;1.95;;;21.10;99.90;;;;;;5055579;28;20029;-81
2023/06/03 08:09:41;;;;;;;5.97;2.35;;;21.30;99.90;;;;;;5063133;28;20029;-80
2023/06/03 08:12:09;;;;;;;6.32;2.08;;;21.60;99.90;;;;;;5062963;28;20382;-80
2023/06/03 08:14:37;;;;;;;3.38;1.85;;;21.30;99.90;;;;;;5058645;28;20176;-79
2023/06/03 08:17:13;;;;;;;7.78;2.83;;;21.70;99.90;;;;;;5065391;28;20028;-77
2023/06/03 08:19:44;;;;;;;7.47;2.60;;;22.20;99.90;;;;;;5056730;28;20056;-80
2023/06/03 08:22:40;;;;;;;5.80;2.38;;;21.70;99.90;;;;;;5070406;28;20032;-80
2023/06/03 08:25:07;;;;;;;4.78;2.40;;;21.80;99.90;;;;;;5074498;28;20036;-79
2023/06/03 08:27:34;;;;;;;3.40;1.95;;;22.00;99.90;;;;;;5073415;28;20044;-79
2023/06/03 08:30:03;;;;;;;6.03;2.80;;;21.90;99.90;;;;;;5068737;28;20033;-77
2023/06/03 08:32:36;;;;;;;5.68;2.92;;;21.70;99.90;;;;;;5068124;28;20051;-81
2023/06/03 08:35:03;;;;;;;4.88;2.40;;;21.90;99.90;;;;;;5065373;28;20040;-78
2023/06/03 08:37:33;;;;;;;5.47;2.45;;;21.70;99.90;;;;;;5064520;28;20367;-80
2023/06/03 08:40:01;;;;;;;10.60;2.72;;;22.10;99.90;;;;;;5061816;28;20049;-82
2023/06/03 08:42:34;;;;;;;3.60;2.47;;;22.20;99.90;;;;;;5071455;28;20082;-81
2023/06/03 08:45:05;;;;;;;4.32;2.13;;;22.40;99.90;;;;;;5087014;28;20043;-81
2023/06/03 08:48:00;;;;;;;7.05;2.42;;;22.20;99.90;;;;;;5084676;28;20032;-77
2023/06/03 08:50:27;;;;;;;6.50;2.80;;;22.30;99.90;;;;;;5082379;28;20043;-85
2023/06/03 08:52:55;;;;;;;5.63;2.60;;;22.40;99.90;;;;;;5083319;28;20038;-78
2023/06/03 08:55:22;;;;;;;5.65;2.30;;;22.40;99.90;;;;;;5083437;28;20040;-76
2023/06/03 08:58:03;;;;;;;5.10;2.38;;;22.50;99.90;;;;;;5084397;28;20032;-78
2023/06/03 09:00:30;;;;;;;7.45;2.60;;;22.10;99.90;;;;;;5082255;28;20051;-77
2023/06/03 09:02:56;;;;;;;7.10;3.60;;;21.80;99.90;;;;;;5085790;28;20028;-78
2023/06/03 09:05:23;;;;;;;9.13;3.85;;;22.10;99.90;;;;;;5086845;28;20036;-79
2023/06/03 09:07:50;;;;;;;5.20;2.70;;;22.50;99.90;;;;;;5087694;28;20032;-79
2023/06/03 09:10:20;;;;;;;7.45;3.00;;;22.40;99.90;;;;;;5086406;28;20028;-76
2023/06/03 09:12:48;;;;;;;5.82;2.25;;;22.40;99.90;;;;;;5087171;28;20273;-79
2023/06/03 09:15:14;;;;;;;5.40;2.20;;;21.70;99.90;;;;;;5087692;28;20032;-80
2023/06/03 09:17:42;;;;;;;3.92;2.50;;;21.80;99.90;;;;;;5085275;28;20064;-78
2023/06/03 09:20:10;;;;;;;4.80;2.17;;;22.30;99.90;;;;;;5087565;28;20032;-79
2023/06/03 09:22:37;;;;;;;4.75;3.10;;;22.70;99.90;;;;;;5089470;28;20040;-78
2023/06/03 09:25:05;;;;;;;4.95;2.33;;;22.20;99.90;;;;;;5085913;28;20039;-80
2023/06/03 09:27:32;;;;;;;5.18;2.67;;;22.10;99.90;;;;;;5086974;28;20063;-80
2023/06/03 09:30:00;;;;;;;6.00;2.65;;;22.50;99.90;;;;;;5084189;28;20033;-79
2023/06/03 09:32:26;;;;;;;7.20;2.53;;;22.80;99.90;;;;;;5088142;28;20036;-79
2023/06/03 09:34:53;;;;;;;4.38;2.35;;;22.10;99.90;;;;;;5088057;28;20028;-80
2023/06/03 09:37:19;;;;;;;5.55;2.65;;;22.50;99.90;;;;;;5091485;28;20044;-79
2023/06/03 09:39:45;;;;;;;7.15;1.80;;;23.10;99.90;;;;;;5083567;28;20468;-75
2023/06/03 09:42:12;;;;;;;5.32;2.55;;;22.50;99.90;;;;;;5074592;28;20048;-80
2023/06/03 09:44:41;;;;;;;5.65;2.83;;;22.90;99.90;;;;;;5066062;28;20286;-80
2023/06/03 09:47:08;;;;;;;4.25;2.25;;;23.20;99.90;;;;;;5034848;28;20040;-81
2023/06/03 09:49:35;;;;;;;4.70;2.38;;;23.30;99.90;;;;;;5064790;28;20457;-79
2023/06/03 09:52:03;;;;;;;4.43;2.78;;;23.30;99.90;;;;;;5066950;28;20070;-80
2023/06/03 09:54:29;;;;;;;4.25;2.10;;;23.30;99.90;;;;;;5068425;28;20040;-80
2023/06/03 09:57:11;;;;;;;4.70;2.22;;;23.40;99.90;;;;;;5068972;28;20397;-78
2023/06/03 09:59:45;;;;;;;7.85;2.83;;;23.60;99.90;;;;;;5064611;28;20054;-79
2023/06/03 10:02:12;;;;;;;6.15;2.47;;;23.30;99.90;;;;;;5060204;28;20045;-80
2023/06/03 10:04:44;;;;;;;4.70;2.47;;;23.30;99.90;;;;;;5071795;28;20393;-84
2023/06/03 10:07:13;;;;;;;3.55;2.25;;;23.80;99.90;;;;;;5059903;28;20068;-77
2023/06/03 10:09:44;;;;;;;4.90;2.40;;;23.70;99.90;;;;;;5065274;28;20040;-79
2023/06/03 10:12:15;;;;;;;5.82;2.45;;;23.20;99.90;;;;;;5074976;28;20039;-82
2023/06/03 10:14:46;;;;;;;7.13;2.60;;;23.40;99.90;;;;;;5067683;28;20112;-80
2023/06/03 10:17:14;;;;;;;5.22;2.60;;;22.90;99.90;;;;;;5050780;28;20048;-80
2023/06/03 10:19:42;;;;;;;4.10;2.80;;;22.70;99.90;;;;;;5042991;28;20040;-80
2023/06/03 10:22:15;;;;;;;8.63;2.88;;;22.90;99.90;;;;;;5066881;28;20052;-83
2023/06/03 10:24:43;;;;;;;6.35;2.90;;;23.20;99.90;;;;;;5066161;28;20032;-81
2023/06/03 10:27:10;;;;;;;8.27;2.15;;;23.50;99.90;;;;;;5068254;28;20036;-75
2023/06/03 10:29:37;;;;;;;6.85;2.47;;;23.20;99.90;;;;;;5066194;28;20033;-75
2023/06/03 10:32:07;;;;;;;7.03;2.60;;;23.10;99.90;;;;;;5068399;28;20024;-80
2023/06/03 10:34:44;;;;;;;5.57;2.15;;;23.00;99.90;;;;;;5063492;28;20028;-81
2023/06/03 10:37:14;;;;;;;6.18;2.25;;;23.30;99.90;;;;;;5067712;28;20044;-81
2023/06/03 10:39:43;;;;;;;6.57;2.60;;;23.50;99.90;;;;;;5065359;28;20047;-83
2023/06/03 10:42:11;;;;;;;7.10;2.85;;;23.40;99.90;;;;;;5066699;28;20505;-80
2023/06/03 10:44:38;;;;;;;7.95;3.42;;;23.20;99.90;;;;;;5047426;28;20056;-80
2023/06/03 10:47:25;;;;;;;7.97;2.42;;;23.10;99.90;;;;;;5065734;28;20040;-79
2023/06/03 10:49:58;;;;;;;5.88;2.90;;;23.30;99.90;;;;;;5043902;28;20040;-81
2023/06/03 10:52:39;;;;;;;4.95;2.50;;;23.10;99.90;;;;;;5064018;28;20032;-80
2023/06/03 10:55:30;;;;;;;4.88;2.85;;;23.40;99.90;;;;;;5054534;28;20028;-78
2023/06/03 10:58:03;;;;;;;6.63;2.85;;;23.70;99.90;;;;;;5064090;28;20041;-80
2023/06/03 11:00:55;;;;;;;5.63;2.65;;;23.70;99.90;;;;;;5064650;28;20029;-79
2023/06/03 11:03:24;;;;;;;5.63;2.67;;;23.60;99.90;;;;;;5064724;28;20044;-82
2023/06/03 11:05:51;;;;;;;6.75;2.33;;;23.10;99.90;;;;;;5072034;28;20462;-82
2023/06/03 11:08:55;;;;;;;7.10;2.63;;;23.10;99.90;;;;;;5055391;28;20036;-83
2023/06/03 11:11:40;;;;;;;7.78;2.90;;;23.50;99.90;;;;;;5032718;28;20044;-81
2023/06/03 11:14:40;;;;;;;4.75;2.65;;;23.50;99.90;;;;;;5052570;28;20039;-75
2023/06/03 11:17:09;;;;;;;5.70;3.28;;;23.10;99.90;;;;;;5055954;28;20056;-81
2023/06/03 11:19:45;;;;;;;5.88;2.65;;;23.40;99.90;;;;;;5063932;28;20040;-80
2023/06/03 11:22:13;;;;;;;7.85;3.53;;;23.70;99.90;;;;;;5051722;28;20059;-82
2023/06/03 11:24:42;;;;;;;4.80;2.63;;;24.00;99.90;;;;;;5059820;28;20031;-80
2023/06/03 11:27:14;;;;;;;7.78;2.88;;;24.00;99.90;;;;;;5045660;28;20036;-78
2023/06/03 11:29:44;;;;;;;4.57;2.42;;;23.60;99.90;;;;;;5063311;28;20047;-78
2023/06/03 11:32:20;;;;;;;4.90;2.43;;;23.70;99.90;;;;;;5065171;28;20025;-77
2023/06/03 11:34:50;;;;;;;5.70;2.95;;;23.50;99.90;;;;;;5046372;28;20612;-77
2023/06/03 11:37:19;;;;;;;7.55;3.17;;;23.50;99.90;;;;;;5060860;28;20441;-83
2023/06/03 11:40:05;;;;;;;4.35;2.60;;;23.90;99.90;;;;;;5058655;28;20037;-84
2023/06/03 11:42:32;;;;;;;8.38;3.88;;;23.80;99.90;;;;;;5074007;28;20036;-83
2023/06/03 11:45:20;;;;;;;6.05;2.67;;;23.40;99.90;;;;;;5081336;28;20043;-83
2023/06/03 11:47:54;;;;;;;7.68;3.13;;;23.40;99.90;;;;;;5100021;28;20040;-81
2023/06/03 11:50:27;;;;;;;6.45;2.80;;;23.60;99.90;;;;;;5099778;28;20051;-79
2023/06/03 11:52:53;;;;;;;8.23;2.75;;;23.90;99.90;;;;;;5084215;28;20063;-76
2023/06/03 11:55:34;;;;;;;5.25;2.40;;;23.60;99.90;;;;;;5082825;28;20028;-84
2023/06/03 11:58:14;;;;;;;5.70;3.05;;;23.60;99.90;;;;;;5076760;28;20073;-87
2023/06/03 12:00:40;;;;;;;6.55;2.58;;;23.30;99.90;;;;;;5084465;28;20370;-83
2023/06/03 12:03:14;;;;;;;4.05;2.72;;;23.30;99.90;;;;;;5083692;28;20035;-83
2023/06/03 12:05:53;;;;;;;5.53;2.85;;;23.80;99.90;;;;;;5079934;28;20404;-85
2023/06/03 12:08:20;;;;;;;7.57;3.00;;;24.20;99.90;;;;;;5086791;28;20032;-86
2023/06/03 12:10:46;;;;;;;7.68;2.75;;;24.10;99.90;;;;;;5083392;28;20032;-82
2023/06/03 12:13:13;;;;;;;6.38;2.35;;;23.70;99.90;;;;;;5086332;28;20032;-80
2023/06/03 12:15:49;;;;;;;6.07;2.70;;;23.60;99.90;;;;;;5088478;28;20133;-77
2023/06/03 12:18:15;;;;;;;6.20;2.78;;;23.50;99.90;;;;;;5091216;28;20062;-84
2023/06/03 12:20:41;;;;;;;4.15;2.70;;;23.50;99.90;;;;;;5090787;28;20032;-77
2023/06/03 12:23:07;;;;;;;4.60;2.72;;;23.70;99.90;;;;;;5090246;28;20044;-84
2023/06/03 12:25:35;;;;;;;4.20;2.72;;;24.20;99.90;;;;;;5089501;28;20044;-82
2023/06/03 12:28:22;;;;;;;5.70;3.17;;;24.10;99.90;;;;;;5093801;28;20032;-80
2023/06/03 12:30:49;;;;;;;9.60;2.65;;;24.40;99.90;;;;;;5089217;28;20067;-79
2023/06/03 12:33:16;;;;;;;8.05;2.95;;;25.10;99.90;;;;;;5085545;28;20384;-79
2023/06/03 12:35:53;;;;;;;4.45;2.28;;;25.10;99.50;;;;;;5081034;28;20063;-82
2023/06/03 12:38:21;;;;;;;5.80;2.92;;;24.60;99.20;;;;;;5062587;28;20400;-81
2023/06/03 12:40:47;;;;;;;7.88;3.25;;;24.30;99.90;;;;;;5070678;28;20033;-82
2023/06/03 12:43:22;;;;;;;8.13;3.35;;;24.20;99.90;;;;;;5061290;28;20473;-76
2023/06/03 12:45:49;;;;;;;6.63;2.80;;;24.50;99.60;;;;;;5059558;28;20029;-78
2023/06/03 12:52:31;;;;;;;5.55;2.72;;;24.50;99.90;;;;;;5077508;28;20039;-80
2023/06/03 12:54:59;;;;;;;5.90;3.25;;;24.70;99.90;;;;;;5047988;28;20040;-76
2023/06/03 12:57:25;;;;;;;7.80;3.88;;;25.00;98.00;;;;;;5074576;28;20051;-78
2023/06/03 13:00:11;;;;;;;5.40;2.65;;;24.90;97.30;;;;;;5067099;28;20024;-78
2023/06/03 13:02:39;;;;;;;5.88;2.97;;;24.90;99.00;;;;;;5065590;28;20028;-78
2023/06/03 13:05:06;;;;;;;5.55;3.40;;;25.10;95.80;;;;;;5074548;28;20032;-78
2023/06/03 13:07:34;;;;;;;5.20;2.72;;;24.80;96.30;;;;;;5074669;28;20469;-81